sensor_id;sensor_type;location;lat;lon;timestamp;temperature;humidity
7494;DHT22;3788;49.902;8.590;2023-02-01T00:00:26;6.00;99.90
7494;DHT22;3788;49.902;8.590;2023-02-01T00:02:53;6.00;99.90
7494;DHT22;3788;49.902;8.590;2023-02-01T00:05:20;6.00;99.90
7494;DHT22;3788;49.902;8.590;2023-02-01T00:07:47;6.00;99.90
7494;DHT22;3788;49.902;8.590;2023-02-01T00:10:14;6.00;99.90
7494;DHT22;3788;49.902;8.590;2023-02-01T00:12:41;6.00;99.90
7494;DHT22;3788;49.902;8.590;2023-02-01T00:15:09;6.00;99.90
7494;DHT22;3788;49.902;8.590;2023-02-01T00:17:36;6.00;99.90
7494;DHT22;3788;49.902;8.590;2023-02-01T00:20:03;6.00;99.90
7494;DHT22;3788;49.902;8.590;2023-02-01T00:22:30;6.00;99.90
7494;DHT22;3788;49.902;8.590;2023-02-01T00:24:57;6.00;99.90
7494;DHT22;3788;49.902;8.590;2023-02-01T00:27:24;6.00;99.90
7494;DHT22;3788;49.902;8.590;2023-02-01T00:29:50;6.00;99.90
7494;DHT22;3788;49.902;8.590;2023-02-01T00:32:18;6.00;99.90
7494;DHT22;3788;49.902;8.590;2023-02-01T00:34:45;6.00;99.90
7494;DHT22;3788;49.902;8.590;2023-02-01T00:37:12;6.00;99.90
7494;DHT22;3788;49.902;8.590;2023-02-01T00:39:38;6.00;99.90
7494;DHT22;3788;49.902;8.590;2023-02-01T00:42:05;6.00;99.90
7494;DHT22;3788;49.902;8.590;2023-02-01T00:44:32;6.00;99.90
7494;DHT22;3788;49.902;8.590;2023-02-01T00:47:01;6.00;99.90
7494;DHT22;3788;49.902;8.590;2023-02-01T00:49:29;6.00;99.90
7494;DHT22;3788;49.902;8.590;2023-02-01T00:51:55;5.90;99.90
7494;DHT22;3788;49.902;8.590;2023-02-01T00:54:22;5.90;99.90
7494;DHT22;3788;49.902;8.590;2023-02-01T00:56:49;5.90;99.90
7494;DHT22;3788;49.902;8.590;2023-02-01T00:59:16;5.80;99.90
7494;DHT22;3788;49.902;8.590;2023-02-01T01:01:42;5.80;99.90
7494;DHT22;3788;49.902;8.590;2023-02-01T01:04:09;5.80;99.90
7494;DHT22;3788;49.902;8.590;2023-02-01T01:06:37;5.80;99.90
7494;DHT22;3788;49.902;8.590;2023-02-01T01:09:07;5.80;99.90
7494;DHT22;3788;49.902;8.590;2023-02-01T01:11:35;5.90;99.90
7494;DHT22;3788;49.902;8.590;2023-02-01T01:14:03;5.90;99.90
7494;DHT22;3788;49.902;8.590;2023-02-01T01:16:32;5.90;99.90
7494;DHT22;3788;49.902;8.590;2023-02-01T01:19:00;5.90;99.90
7494;DHT22;3788;49.902;8.590;2023-02-01T01:21:27;5.90;99.90
7494;DHT22;3788;49.902;8.590;2023-02-01T01:23:55;5.90;99.90
7494;DHT22;3788;49.902;8.590;2023-02-01T01:26:24;6.00;99.90
7494;DHT22;3788;49.902;8.590;2023-02-01T01:28:51;6.00;99.90
7494;DHT22;3788;49.902;8.590;2023-02-01T01:31:19;6.00;99.90
7494;DHT22;3788;49.902;8.590;2023-02-01T01:33:52;6.00;99.90
7494;DHT22;3788;49.902;8.590;2023-02-01T01:36:19;6.10;99.90
7494;DHT22;3788;49.902;8.590;2023-02-01T01:38:46;6.10;99.90
7494;DHT22;3788;49.902;8.590;2023-02-01T01:41:17;6.10;99.90
7494;DHT22;3788;49.902;8.590;2023-02-01T01:43:55;6.10;99.90
7494;DHT22;3788;49.902;8.590;2023-02-01T01:46:24;6.10;99.90
7494;DHT22;3788;49.902;8.590;2023-02-01T01:48:56;6.10;99.90
7494;DHT22;3788;49.902;8.590;2023-02-01T01:51:24;6.10;99.90
7494;DHT22;3788;49.902;8.590;2023-02-01T01:53:57;6.10;99.90
7494;DHT22;3788;49.902;8.590;2023-02-01T01:56:28;6.10;99.90
7494;DHT22;3788;49.902;8.590;2023-02-01T01:58:55;6.00;99.90
7494;DHT22;3788;49.902;8.590;2023-02-01T02:01:22;6.00;99.90
7494;DHT22;3788;49.902;8.590;2023-02-01T02:03:50;6.00;99.90
7494;DHT22;3788;49.902;8.590;2023-02-01T02:06:28;6.10;99.90
7494;DHT22;3788;49.902;8.590;2023-02-01T02:08:56;6.00;99.90
7494;DHT22;3788;49.902;8.590;2023-02-01T02:11:23;6.00;99.90
7494;DHT22;3788;49.902;8.590;2023-02-01T02:13:54;6.10;99.90
7494;DHT22;3788;49.902;8.590;2023-02-01T02:16:37;6.10;99.90
7494;DHT22;3788;49.902;8.590;2023-02-01T02:22:17;6.10;99.90
7494;DHT22;3788;49.902;8.590;2023-02-01T02:28:28;6.10;99.90
7494;DHT22;3788;49.902;8.590;2023-02-01T02:31:14;6.10;99.90
7494;DHT22;3788;49.902;8.590;2023-02-01T02:34:06;6.10;99.90
7494;DHT22;3788;49.902;8.590;2023-02-01T02:36:42;6.10;99.90
7494;DHT22;3788;49.902;8.590;2023-02-01T02:39:19;6.10;99.90
7494;DHT22;3788;49.902;8.590;2023-02-01T02:41:51;6.20;99.90
7494;DHT22;3788;49.902;8.590;2023-02-01T02:44:45;6.20;99.90
7494;DHT22;3788;49.902;8.590;2023-02-01T02:47:42;6.20;99.90
7494;DHT22;3788;49.902;8.590;2023-02-01T02:50:18;6.20;99.90
7494;DHT22;3788;49.902;8.590;2023-02-01T02:53:10;6.20;99.90
7494;DHT22;3788;49.902;8.590;2023-02-01T02:55:56;6.20;99.90
7494;DHT22;3788;49.902;8.590;2023-02-01T02:58:43;6.20;99.90
7494;DHT22;3788;49.902;8.590;2023-02-01T03:01:30;6.20;99.90
7494;DHT22;3788;49.902;8.590;2023-02-01T03:04:15;6.20;99.90
7494;DHT22;3788;49.902;8.590;2023-02-01T03:06:45;6.20;99.90
7494;DHT22;3788;49.902;8.590;2023-02-01T03:09:16;6.20;99.90
7494;DHT22;3788;49.902;8.590;2023-02-01T03:11:47;6.20;99.90
7494;DHT22;3788;49.902;8.590;2023-02-01T03:14:34;6.20;99.90
7494;DHT22;3788;49.902;8.590;2023-02-01T03:19:30;6.20;99.90
7494;DHT22;3788;49.902;8.590;2023-02-01T03:22:02;6.20;99.90
7494;DHT22;3788;49.902;8.590;2023-02-01T03:24:32;6.20;99.90
7494;DHT22;3788;49.902;8.590;2023-02-01T03:27:04;6.20;99.90
7494;DHT22;3788;49.902;8.590;2023-02-01T03:29:38;6.20;99.90
7494;DHT22;3788;49.902;8.590;2023-02-01T03:32:06;6.10;99.90
7494;DHT22;3788;49.902;8.590;2023-02-01T03:34:35;6.10;99.90
7494;DHT22;3788;49.902;8.590;2023-02-01T03:37:06;6.10;99.90
7494;DHT22;3788;49.902;8.590;2023-02-01T03:39:36;6.10;99.90
7494;DHT22;3788;49.902;8.590;2023-02-01T03:42:10;6.10;99.90
7494;DHT22;3788;49.902;8.590;2023-02-01T03:44:42;6.10;99.90
7494;DHT22;3788;49.902;8.590;2023-02-01T03:47:14;6.00;99.90
7494;DHT22;3788;49.902;8.590;2023-02-01T03:49:47;6.00;99.90
7494;DHT22;3788;49.902;8.590;2023-02-01T03:52:20;6.00;99.90
7494;DHT22;3788;49.902;8.590;2023-02-01T03:54:49;6.00;99.90
7494;DHT22;3788;49.902;8.590;2023-02-01T03:57:20;6.00;99.90
7494;DHT22;3788;49.902;8.590;2023-02-01T03:59:48;6.00;99.90
7494;DHT22;3788;49.902;8.590;2023-02-01T04:02:16;6.00;99.90
7494;DHT22;3788;49.902;8.590;2023-02-01T04:04:42;6.00;99.90
7494;DHT22;3788;49.902;8.590;2023-02-01T04:07:09;6.00;99.90
7494;DHT22;3788;49.902;8.590;2023-02-01T04:09:37;6.00;99.90
7494;DHT22;3788;49.902;8.590;2023-02-01T04:12:04;6.00;99.90
7494;DHT22;3788;49.902;8.590;2023-02-01T04:14:31;6.00;99.90
7494;DHT22;3788;49.902;8.590;2023-02-01T04:16:57;6.00;99.90
7494;DHT22;3788;49.902;8.590;2023-02-01T04:19:24;6.00;99.90
7494;DHT22;3788;49.902;8.590;2023-02-01T04:21:51;6.00;99.90
7494;DHT22;3788;49.902;8.590;2023-02-01T04:24:17;6.00;99.90
7494;DHT22;3788;49.902;8.590;2023-02-01T04:26:45;6.10;99.90
7494;DHT22;3788;49.902;8.590;2023-02-01T04:29:12;6.00;99.90
7494;DHT22;3788;49.902;8.590;2023-02-01T04:31:39;6.10;99.90
7494;DHT22;3788;49.902;8.590;2023-02-01T04:34:06;6.00;99.90
7494;DHT22;3788;49.902;8.590;2023-02-01T04:36:33;6.10;99.90
7494;DHT22;3788;49.902;8.590;2023-02-01T04:39:00;6.10;99.90
7494;DHT22;3788;49.902;8.590;2023-02-01T04:41:26;6.10;99.90
7494;DHT22;3788;49.902;8.590;2023-02-01T04:43:55;6.10;99.90
7494;DHT22;3788;49.902;8.590;2023-02-01T04:46:22;6.10;99.90
7494;DHT22;3788;49.902;8.590;2023-02-01T04:48:49;6.10;99.90
7494;DHT22;3788;49.902;8.590;2023-02-01T04:51:15;6.20;99.90
7494;DHT22;3788;49.902;8.590;2023-02-01T04:53:43;6.20;99.90
7494;DHT22;3788;49.902;8.590;2023-02-01T04:56:10;6.20;99.90
7494;DHT22;3788;49.902;8.590;2023-02-01T04:58:37;6.20;99.90
7494;DHT22;3788;49.902;8.590;2023-02-01T05:01:06;6.20;99.90
7494;DHT22;3788;49.902;8.590;2023-02-01T05:03:34;6.20;99.90
7494;DHT22;3788;49.902;8.590;2023-02-01T05:06:01;6.20;99.90
7494;DHT22;3788;49.902;8.590;2023-02-01T05:08:29;6.20;99.90
7494;DHT22;3788;49.902;8.590;2023-02-01T05:10:56;6.20;99.90
7494;DHT22;3788;49.902;8.590;2023-02-01T05:13:24;6.20;99.90
7494;DHT22;3788;49.902;8.590;2023-02-01T05:16:09;6.20;99.90
7494;DHT22;3788;49.902;8.590;2023-02-01T05:18:36;6.20;99.90
7494;DHT22;3788;49.902;8.590;2023-02-01T05:21:03;6.20;99.90
7494;DHT22;3788;49.902;8.590;2023-02-01T05:23:29;6.20;99.90
7494;DHT22;3788;49.902;8.590;2023-02-01T05:25:58;6.20;99.90
7494;DHT22;3788;49.902;8.590;2023-02-01T05:28:26;6.20;99.90
7494;DHT22;3788;49.902;8.590;2023-02-01T05:30:53;6.20;99.90
7494;DHT22;3788;49.902;8.590;2023-02-01T05:33:21;6.20;99.90
7494;DHT22;3788;49.902;8.590;2023-02-01T05:35:48;6.20;99.90
7494;DHT22;3788;49.902;8.590;2023-02-01T05:38:15;6.20;99.90
7494;DHT22;3788;49.902;8.590;2023-02-01T05:40:42;6.10;99.90
7494;DHT22;3788;49.902;8.590;2023-02-01T05:43:14;6.10;99.90
7494;DHT22;3788;49.902;8.590;2023-02-01T05:45:41;6.10;99.90
7494;DHT22;3788;49.902;8.590;2023-02-01T05:48:08;6.10;99.90
7494;DHT22;3788;49.902;8.590;2023-02-01T05:50:36;6.10;99.90
7494;DHT22;3788;49.902;8.590;2023-02-01T05:53:03;6.10;99.90
7494;DHT22;3788;49.902;8.590;2023-02-01T05:55:29;6.20;99.90
7494;DHT22;3788;49.902;8.590;2023-02-01T05:57:56;6.20;99.90
7494;DHT22;3788;49.902;8.590;2023-02-01T06:00:23;6.20;99.90
7494;DHT22;3788;49.902;8.590;2023-02-01T06:02:50;6.20;99.90
7494;DHT22;3788;49.902;8.590;2023-02-01T06:05:16;6.20;99.90
7494;DHT22;3788;49.902;8.590;2023-02-01T06:07:44;6.20;99.90
7494;DHT22;3788;49.902;8.590;2023-02-01T06:10:12;6.20;99.90
7494;DHT22;3788;49.902;8.590;2023-02-01T06:12:39;6.10;99.90
7494;DHT22;3788;49.902;8.590;2023-02-01T06:15:07;6.10;99.90
7494;DHT22;3788;49.902;8.590;2023-02-01T06:17:34;6.10;99.90
7494;DHT22;3788;49.902;8.590;2023-02-01T06:20:01;6.10;99.90
7494;DHT22;3788;49.902;8.590;2023-02-01T06:22:28;6.10;99.90
7494;DHT22;3788;49.902;8.590;2023-02-01T06:24:56;6.00;99.90
7494;DHT22;3788;49.902;8.590;2023-02-01T06:27:24;6.00;99.90
7494;DHT22;3788;49.902;8.590;2023-02-01T06:29:51;6.00;99.90
7494;DHT22;3788;49.902;8.590;2023-02-01T06:32:17;6.00;99.90
7494;DHT22;3788;49.902;8.590;2023-02-01T06:34:44;6.00;99.90
7494;DHT22;3788;49.902;8.590;2023-02-01T06:37:11;6.00;99.90
7494;DHT22;3788;49.902;8.590;2023-02-01T06:39:37;6.00;99.90
7494;DHT22;3788;49.902;8.590;2023-02-01T06:42:05;6.00;99.90
7494;DHT22;3788;49.902;8.590;2023-02-01T06:44:32;6.00;99.90
7494;DHT22;3788;49.902;8.590;2023-02-01T06:46:59;5.90;99.90
7494;DHT22;3788;49.902;8.590;2023-02-01T06:49:25;5.90;99.90
7494;DHT22;3788;49.902;8.590;2023-02-01T06:51:52;5.80;99.90
7494;DHT22;3788;49.902;8.590;2023-02-01T06:54:19;5.80;99.90
7494;DHT22;3788;49.902;8.590;2023-02-01T06:56:45;5.80;99.90
7494;DHT22;3788;49.902;8.590;2023-02-01T06:59:14;5.70;99.90
7494;DHT22;3788;49.902;8.590;2023-02-01T07:01:40;5.80;99.90
7494;DHT22;3788;49.902;8.590;2023-02-01T07:04:09;5.80;99.90
7494;DHT22;3788;49.902;8.590;2023-02-01T07:06:36;5.80;99.90
7494;DHT22;3788;49.902;8.590;2023-02-01T07:09:03;5.80;99.90
7494;DHT22;3788;49.902;8.590;2023-02-01T07:11:30;5.80;99.90
7494;DHT22;3788;49.902;8.590;2023-02-01T07:13:57;5.80;99.90
7494;DHT22;3788;49.902;8.590;2023-02-01T07:16:25;5.80;99.90
7494;DHT22;3788;49.902;8.590;2023-02-01T07:18:52;5.70;99.90
7494;DHT22;3788;49.902;8.590;2023-02-01T07:21:19;5.70;99.90
7494;DHT22;3788;49.902;8.590;2023-02-01T07:23:46;5.60;99.90
7494;DHT22;3788;49.902;8.590;2023-02-01T07:26:14;5.60;99.90
7494;DHT22;3788;49.902;8.590;2023-02-01T07:28:42;5.50;99.90
7494;DHT22;3788;49.902;8.590;2023-02-01T07:31:11;5.50;99.90
7494;DHT22;3788;49.902;8.590;2023-02-01T07:33:40;5.50;99.90
7494;DHT22;3788;49.902;8.590;2023-02-01T07:36:11;5.50;99.90
7494;DHT22;3788;49.902;8.590;2023-02-01T07:38:38;5.40;99.90
7494;DHT22;3788;49.902;8.590;2023-02-01T07:41:06;5.40;99.90
7494;DHT22;3788;49.902;8.590;2023-02-01T07:43:33;5.40;99.90
7494;DHT22;3788;49.902;8.590;2023-02-01T07:46:01;5.40;99.90
7494;DHT22;3788;49.902;8.590;2023-02-01T07:48:28;5.40;99.90
7494;DHT22;3788;49.902;8.590;2023-02-01T07:51:00;5.50;99.90
7494;DHT22;3788;49.902;8.590;2023-02-01T07:53:29;5.50;99.90
7494;DHT22;3788;49.902;8.590;2023-02-01T07:55:56;5.60;99.90
7494;DHT22;3788;49.902;8.590;2023-02-01T07:58:24;5.60;99.90
7494;DHT22;3788;49.902;8.590;2023-02-01T08:00:51;5.70;99.90
7494;DHT22;3788;49.902;8.590;2023-02-01T08:03:36;5.90;99.90
7494;DHT22;3788;49.902;8.590;2023-02-01T08:06:05;6.30;99.90
7494;DHT22;3788;49.902;8.590;2023-02-01T08:08:32;6.70;99.90
7494;DHT22;3788;49.902;8.590;2023-02-01T08:11:00;7.10;99.90
7494;DHT22;3788;49.902;8.590;2023-02-01T08:13:27;7.60;99.90
7494;DHT22;3788;49.902;8.590;2023-02-01T08:15:57;7.90;99.90
7494;DHT22;3788;49.902;8.590;2023-02-01T08:18:24;8.30;99.90
7494;DHT22;3788;49.902;8.590;2023-02-01T08:20:51;8.50;99.90
7494;DHT22;3788;49.902;8.590;2023-02-01T08:23:19;8.80;99.90
7494;DHT22;3788;49.902;8.590;2023-02-01T08:25:46;9.00;99.90
7494;DHT22;3788;49.902;8.590;2023-02-01T08:28:13;9.20;99.90
7494;DHT22;3788;49.902;8.590;2023-02-01T08:30:41;9.20;99.90
7494;DHT22;3788;49.902;8.590;2023-02-01T08:33:09;9.00;99.90
7494;DHT22;3788;49.902;8.590;2023-02-01T08:35:36;8.90;99.90
7494;DHT22;3788;49.902;8.590;2023-02-01T08:38:03;8.80;99.90
7494;DHT22;3788;49.902;8.590;2023-02-01T08:40:32;8.90;99.90
7494;DHT22;3788;49.902;8.590;2023-02-01T08:42:59;9.10;99.90
7494;DHT22;3788;49.902;8.590;2023-02-01T08:45:27;9.30;99.90
7494;DHT22;3788;49.902;8.590;2023-02-01T08:47:55;9.50;99.80
7494;DHT22;3788;49.902;8.590;2023-02-01T08:50:23;9.50;99.40
7494;DHT22;3788;49.902;8.590;2023-02-01T08:52:50;9.40;98.70
7494;DHT22;3788;49.902;8.590;2023-02-01T08:55:17;9.30;99.00
7494;DHT22;3788;49.902;8.590;2023-02-01T08:57:46;9.20;99.00
7494;DHT22;3788;49.902;8.590;2023-02-01T09:00:14;9.00;99.00
7494;DHT22;3788;49.902;8.590;2023-02-01T09:02:42;8.80;99.30
7494;DHT22;3788;49.902;8.590;2023-02-01T09:05:09;8.60;99.70
7494;DHT22;3788;49.902;8.590;2023-02-01T09:07:36;8.30;99.80
7494;DHT22;3788;49.902;8.590;2023-02-01T09:10:04;8.10;99.90
7494;DHT22;3788;49.902;8.590;2023-02-01T09:12:32;8.00;99.90
7494;DHT22;3788;49.902;8.590;2023-02-01T09:15:00;7.90;99.90
7494;DHT22;3788;49.902;8.590;2023-02-01T09:17:30;7.80;99.90
7494;DHT22;3788;49.902;8.590;2023-02-01T09:19:57;7.70;99.90
7494;DHT22;3788;49.902;8.590;2023-02-01T09:22:23;7.60;99.90
7494;DHT22;3788;49.902;8.590;2023-02-01T09:24:51;7.60;99.90
7494;DHT22;3788;49.902;8.590;2023-02-01T09:27:18;7.60;99.90
7494;DHT22;3788;49.902;8.590;2023-02-01T09:29:45;7.50;99.90
7494;DHT22;3788;49.902;8.590;2023-02-01T09:32:16;7.50;99.90
7494;DHT22;3788;49.902;8.590;2023-02-01T09:34:43;7.50;99.90
7494;DHT22;3788;49.902;8.590;2023-02-01T09:37:09;7.40;99.90
7494;DHT22;3788;49.902;8.590;2023-02-01T09:39:36;7.40;99.90
7494;DHT22;3788;49.902;8.590;2023-02-01T09:42:10;7.40;99.90
7494;DHT22;3788;49.902;8.590;2023-02-01T09:44:58;7.30;99.90
7494;DHT22;3788;49.902;8.590;2023-02-01T09:47:29;7.30;99.90
7494;DHT22;3788;49.902;8.590;2023-02-01T09:50:00;7.30;99.90
7494;DHT22;3788;49.902;8.590;2023-02-01T09:52:32;7.30;99.40
7494;DHT22;3788;49.902;8.590;2023-02-01T09:55:04;7.30;99.40
7494;DHT22;3788;49.902;8.590;2023-02-01T09:57:43;7.30;99.40
7494;DHT22;3788;49.902;8.590;2023-02-01T10:00:16;7.30;99.50
7494;DHT22;3788;49.902;8.590;2023-02-01T10:02:45;7.30;99.30
7494;DHT22;3788;49.902;8.590;2023-02-01T10:05:14;7.40;98.70
7494;DHT22;3788;49.902;8.590;2023-02-01T10:07:47;7.40;98.90
7494;DHT22;3788;49.902;8.590;2023-02-01T10:10:21;7.40;98.90
7494;DHT22;3788;49.902;8.590;2023-02-01T10:13:17;7.50;99.10
7494;DHT22;3788;49.902;8.590;2023-02-01T10:15:55;7.50;98.80
7494;DHT22;3788;49.902;8.590;2023-02-01T10:18:47;7.50;98.60
7494;DHT22;3788;49.902;8.590;2023-02-01T10:21:25;7.50;98.60
7494;DHT22;3788;49.902;8.590;2023-02-01T10:24:06;7.60;98.40
7494;DHT22;3788;49.902;8.590;2023-02-01T10:26:39;7.60;98.50
7494;DHT22;3788;49.902;8.590;2023-02-01T10:29:15;7.60;98.10
7494;DHT22;3788;49.902;8.590;2023-02-01T10:31:43;7.70;98.40
7494;DHT22;3788;49.902;8.590;2023-02-01T10:34:17;7.60;98.30
7494;DHT22;3788;49.902;8.590;2023-02-01T10:36:50;7.70;98.40
7494;DHT22;3788;49.902;8.590;2023-02-01T10:39:18;7.70;98.30
7494;DHT22;3788;49.902;8.590;2023-02-01T10:41:45;7.70;98.10
7494;DHT22;3788;49.902;8.590;2023-02-01T10:44:15;7.70;98.20
7494;DHT22;3788;49.902;8.590;2023-02-01T10:46:43;7.70;98.00
7494;DHT22;3788;49.902;8.590;2023-02-01T10:49:16;7.70;97.90
7494;DHT22;3788;49.902;8.590;2023-02-01T10:51:47;7.70;97.90
7494;DHT22;3788;49.902;8.590;2023-02-01T10:54:18;7.70;97.80
7494;DHT22;3788;49.902;8.590;2023-02-01T10:56:46;7.70;97.80
7494;DHT22;3788;49.902;8.590;2023-02-01T10:59:16;7.70;97.70
7494;DHT22;3788;49.902;8.590;2023-02-01T11:01:45;7.80;97.40
7494;DHT22;3788;49.902;8.590;2023-02-01T11:04:13;7.80;97.40
7494;DHT22;3788;49.902;8.590;2023-02-01T11:06:44;7.80;97.50
7494;DHT22;3788;49.902;8.590;2023-02-01T11:09:18;7.80;97.40
7494;DHT22;3788;49.902;8.590;2023-02-01T11:11:57;7.90;97.20
7494;DHT22;3788;49.902;8.590;2023-02-01T11:14:33;7.90;96.80
7494;DHT22;3788;49.902;8.590;2023-02-01T11:17:12;7.90;96.50
7494;DHT22;3788;49.902;8.590;2023-02-01T11:19:44;7.90;96.70
7494;DHT22;3788;49.902;8.590;2023-02-01T11:22:14;7.90;96.70
7494;DHT22;3788;49.902;8.590;2023-02-01T11:24:45;7.90;96.50
7494;DHT22;3788;49.902;8.590;2023-02-01T11:27:15;7.90;96.80
7494;DHT22;3788;49.902;8.590;2023-02-01T11:29:44;7.90;96.90
7494;DHT22;3788;49.902;8.590;2023-02-01T11:32:13;7.90;96.80
7494;DHT22;3788;49.902;8.590;2023-02-01T11:34:43;7.80;97.10
7494;DHT22;3788;49.902;8.590;2023-02-01T11:37:17;7.80;97.00
7494;DHT22;3788;49.902;8.590;2023-02-01T11:39:53;7.80;96.80
7494;DHT22;3788;49.902;8.590;2023-02-01T11:42:20;7.80;96.80
7494;DHT22;3788;49.902;8.590;2023-02-01T11:44:47;7.80;96.80
7494;DHT22;3788;49.902;8.590;2023-02-01T11:47:23;7.90;96.70
7494;DHT22;3788;49.902;8.590;2023-02-01T11:49:52;7.90;96.60
7494;DHT22;3788;49.902;8.590;2023-02-01T11:52:37;7.90;96.50
7494;DHT22;3788;49.902;8.590;2023-02-01T11:55:38;7.90;96.80
7494;DHT22;3788;49.902;8.590;2023-02-01T11:58:20;7.90;96.50
7494;DHT22;3788;49.902;8.590;2023-02-01T12:04:16;7.90;96.80
7494;DHT22;3788;49.902;8.590;2023-02-01T12:06:51;7.90;96.90
7494;DHT22;3788;49.902;8.590;2023-02-01T12:09:36;7.90;96.60
7494;DHT22;3788;49.902;8.590;2023-02-01T12:12:12;7.90;96.60
7494;DHT22;3788;49.902;8.590;2023-02-01T12:15:00;7.90;96.50
7494;DHT22;3788;49.902;8.590;2023-02-01T12:17:54;7.90;96.60
7494;DHT22;3788;49.902;8.590;2023-02-01T12:20:41;7.90;96.50
7494;DHT22;3788;49.902;8.590;2023-02-01T12:23:23;7.90;96.70
7494;DHT22;3788;49.902;8.590;2023-02-01T12:26:13;7.90;96.50
7494;DHT22;3788;49.902;8.590;2023-02-01T12:29:03;7.90;96.70
7494;DHT22;3788;49.902;8.590;2023-02-01T12:31:50;7.90;96.60
7494;DHT22;3788;49.902;8.590;2023-02-01T12:34:34;7.90;96.30
7494;DHT22;3788;49.902;8.590;2023-02-01T12:37:10;7.90;96.40
7494;DHT22;3788;49.902;8.590;2023-02-01T12:39:42;8.00;96.10
7494;DHT22;3788;49.902;8.590;2023-02-01T12:42:16;7.90;96.00
7494;DHT22;3788;49.902;8.590;2023-02-01T12:44:49;8.00;96.00
7494;DHT22;3788;49.902;8.590;2023-02-01T12:47:22;8.00;96.10
7494;DHT22;3788;49.902;8.590;2023-02-01T12:49:55;8.00;96.10
7494;DHT22;3788;49.902;8.590;2023-02-01T12:52:30;8.10;95.90
7494;DHT22;3788;49.902;8.590;2023-02-01T12:55:05;8.10;96.20
7494;DHT22;3788;49.902;8.590;2023-02-01T12:57:37;8.10;95.80
7494;DHT22;3788;49.902;8.590;2023-02-01T13:00:17;8.20;95.50
7494;DHT22;3788;49.902;8.590;2023-02-01T13:02:52;8.20;95.70
7494;DHT22;3788;49.902;8.590;2023-02-01T13:05:24;8.30;95.10
7494;DHT22;3788;49.902;8.590;2023-02-01T13:07:59;8.30;95.20
7494;DHT22;3788;49.902;8.590;2023-02-01T13:10:33;8.20;95.20
7494;DHT22;3788;49.902;8.590;2023-02-01T13:13:11;8.20;95.30
7494;DHT22;3788;49.902;8.590;2023-02-01T13:15:42;8.20;95.20
7494;DHT22;3788;49.902;8.590;2023-02-01T13:18:14;8.20;95.30
7494;DHT22;3788;49.902;8.590;2023-02-01T13:20:48;8.20;95.60
7494;DHT22;3788;49.902;8.590;2023-02-01T13:23:23;8.20;95.60
7494;DHT22;3788;49.902;8.590;2023-02-01T13:25:53;8.10;95.50
7494;DHT22;3788;49.902;8.590;2023-02-01T13:28:25;8.10;95.60
7494;DHT22;3788;49.902;8.590;2023-02-01T13:31:19;8.10;95.50
7494;DHT22;3788;49.902;8.590;2023-02-01T13:33:56;8.10;95.50
7494;DHT22;3788;49.902;8.590;2023-02-01T13:36:46;8.10;95.40
7494;DHT22;3788;49.902;8.590;2023-02-01T13:39:46;8.10;95.60
7494;DHT22;3788;49.902;8.590;2023-02-01T13:42:18;8.00;96.00
7494;DHT22;3788;49.902;8.590;2023-02-01T13:44:49;7.90;96.10
7494;DHT22;3788;49.902;8.590;2023-02-01T13:47:28;8.00;95.90
7494;DHT22;3788;49.902;8.590;2023-02-01T13:49:58;8.00;96.10
7494;DHT22;3788;49.902;8.590;2023-02-01T13:52:34;8.00;96.10
7494;DHT22;3788;49.902;8.590;2023-02-01T13:55:24;8.10;95.90
7494;DHT22;3788;49.902;8.590;2023-02-01T13:58:01;8.10;95.90
7494;DHT22;3788;49.902;8.590;2023-02-01T14:00:30;8.10;95.90
7494;DHT22;3788;49.902;8.590;2023-02-01T14:03:14;8.20;95.70
7494;DHT22;3788;49.902;8.590;2023-02-01T14:06:33;8.20;95.90
7494;DHT22;3788;49.902;8.590;2023-02-01T14:09:15;8.20;95.80
7494;DHT22;3788;49.902;8.590;2023-02-01T14:11:51;8.20;95.80
7494;DHT22;3788;49.902;8.590;2023-02-01T14:14:42;8.30;95.50
7494;DHT22;3788;49.902;8.590;2023-02-01T14:17:32;8.20;95.60
7494;DHT22;3788;49.902;8.590;2023-02-01T14:23:21;8.20;95.40
7494;DHT22;3788;49.902;8.590;2023-02-01T14:26:11;8.20;95.40
7494;DHT22;3788;49.902;8.590;2023-02-01T14:28:46;8.20;95.10
7494;DHT22;3788;49.902;8.590;2023-02-01T14:31:29;8.20;95.30
7494;DHT22;3788;49.902;8.590;2023-02-01T14:34:01;8.20;95.30
7494;DHT22;3788;49.902;8.590;2023-02-01T14:36:40;8.20;95.20
7494;DHT22;3788;49.902;8.590;2023-02-01T14:39:20;8.20;95.20
7494;DHT22;3788;49.902;8.590;2023-02-01T14:41:54;8.10;95.50
7494;DHT22;3788;49.902;8.590;2023-02-01T14:44:27;8.20;95.30
7494;DHT22;3788;49.902;8.590;2023-02-01T14:47:27;8.20;95.20
7494;DHT22;3788;49.902;8.590;2023-02-01T14:50:12;8.20;95.10
7494;DHT22;3788;49.902;8.590;2023-02-01T14:52:44;8.20;95.10
7494;DHT22;3788;49.902;8.590;2023-02-01T14:55:16;8.30;94.90
7494;DHT22;3788;49.902;8.590;2023-02-01T14:57:46;8.30;95.20
7494;DHT22;3788;49.902;8.590;2023-02-01T15:02:48;8.30;95.00
7494;DHT22;3788;49.902;8.590;2023-02-01T15:05:35;8.30;95.10
7494;DHT22;3788;49.902;8.590;2023-02-01T15:08:13;8.30;95.30
7494;DHT22;3788;49.902;8.590;2023-02-01T15:10:45;8.30;95.00
7494;DHT22;3788;49.902;8.590;2023-02-01T15:13:20;8.30;94.80
7494;DHT22;3788;49.902;8.590;2023-02-01T15:16:01;8.30;94.90
7494;DHT22;3788;49.902;8.590;2023-02-01T15:18:29;8.30;95.00
7494;DHT22;3788;49.902;8.590;2023-02-01T15:20:58;8.20;95.00
7494;DHT22;3788;49.902;8.590;2023-02-01T15:23:26;8.20;95.30
7494;DHT22;3788;49.902;8.590;2023-02-01T15:25:53;8.20;95.20
7494;DHT22;3788;49.902;8.590;2023-02-01T15:28:20;8.20;95.40
7494;DHT22;3788;49.902;8.590;2023-02-01T15:30:56;8.20;95.30
7494;DHT22;3788;49.902;8.590;2023-02-01T15:33:27;8.20;95.50
7494;DHT22;3788;49.902;8.590;2023-02-01T15:36:06;8.30;95.30
7494;DHT22;3788;49.902;8.590;2023-02-01T15:38:39;8.30;95.40
7494;DHT22;3788;49.902;8.590;2023-02-01T15:41:12;8.30;95.10
7494;DHT22;3788;49.902;8.590;2023-02-01T15:43:43;8.30;95.10
7494;DHT22;3788;49.902;8.590;2023-02-01T15:46:13;8.30;95.20
7494;DHT22;3788;49.902;8.590;2023-02-01T15:49:01;8.20;95.10
7494;DHT22;3788;49.902;8.590;2023-02-01T15:51:31;8.20;95.10
7494;DHT22;3788;49.902;8.590;2023-02-01T15:54:01;8.20;95.20
7494;DHT22;3788;49.902;8.590;2023-02-01T15:56:33;8.20;95.30
7494;DHT22;3788;49.902;8.590;2023-02-01T15:59:02;8.20;95.20
7494;DHT22;3788;49.902;8.590;2023-02-01T16:01:29;8.20;95.20
7494;DHT22;3788;49.902;8.590;2023-02-01T16:04:04;8.30;94.90
7494;DHT22;3788;49.902;8.590;2023-02-01T16:06:45;8.20;94.90
7494;DHT22;3788;49.902;8.590;2023-02-01T16:09:14;8.20;95.10
7494;DHT22;3788;49.902;8.590;2023-02-01T16:11:47;8.30;94.80
7494;DHT22;3788;49.902;8.590;2023-02-01T16:14:14;8.20;94.90
7494;DHT22;3788;49.902;8.590;2023-02-01T16:16:41;8.20;95.00
7494;DHT22;3788;49.902;8.590;2023-02-01T16:19:08;8.20;95.10
7494;DHT22;3788;49.902;8.590;2023-02-01T16:21:35;8.20;95.10
7494;DHT22;3788;49.902;8.590;2023-02-01T16:24:04;8.20;95.10
7494;DHT22;3788;49.902;8.590;2023-02-01T16:26:32;8.20;95.30
7494;DHT22;3788;49.902;8.590;2023-02-01T16:28:59;8.20;95.40
7494;DHT22;3788;49.902;8.590;2023-02-01T16:31:32;8.10;95.40
7494;DHT22;3788;49.902;8.590;2023-02-01T16:33:59;8.20;95.20
7494;DHT22;3788;49.902;8.590;2023-02-01T16:36:26;8.20;95.20
7494;DHT22;3788;49.902;8.590;2023-02-01T16:38:53;8.20;95.10
7494;DHT22;3788;49.902;8.590;2023-02-01T16:41:23;8.20;95.10
7494;DHT22;3788;49.902;8.590;2023-02-01T16:43:51;8.20;95.20
7494;DHT22;3788;49.902;8.590;2023-02-01T16:46:20;8.10;95.30
7494;DHT22;3788;49.902;8.590;2023-02-01T16:48:51;8.10;95.30
7494;DHT22;3788;49.902;8.590;2023-02-01T16:51:19;8.10;95.30
7494;DHT22;3788;49.902;8.590;2023-02-01T16:53:46;8.10;95.30
7494;DHT22;3788;49.902;8.590;2023-02-01T16:56:15;8.10;95.40
7494;DHT22;3788;49.902;8.590;2023-02-01T16:58:43;8.10;95.40
7494;DHT22;3788;49.902;8.590;2023-02-01T17:01:11;8.10;95.50
7494;DHT22;3788;49.902;8.590;2023-02-01T17:03:38;8.00;95.70